createdAt,value
2019-03-01T01:03:50.911Z,95217.02
2019-03-01T01:08:52.193Z,95214.56
2019-03-01T01:13:53.461Z,95208.41
2019-03-01T01:18:54.763Z,95196.44
2019-03-01T01:23:56.074Z,95205.21
2019-03-01T01:28:57.385Z,95182.09
2019-03-01T02:30:59.383Z,95109.79
2019-03-01T02:36:00.682Z,95094.50
2019-03-01T02:41:01.969Z,95081.91
2019-03-01T02:46:04.006Z,95067.92
2019-03-01T02:51:05.327Z,95061.30
2019-03-01T02:56:07.370Z,95061.28
2019-03-01T04:04:31.245Z,95003.63
2019-03-01T04:09:33.265Z,94996.13
2019-03-01T04:14:34.562Z,94986.05
2019-03-01T04:19:35.881Z,95003.59
2019-03-01T04:24:37.164Z,94992.39
2019-03-01T04:29:38.474Z,94998.95
2019-03-01T05:31:41.604Z,94961.91
2019-03-01T05:36:46.089Z,94975.88
2019-03-01T05:41:47.458Z,94982.97
2019-03-01T05:46:48.760Z,94966.91
2019-03-01T05:51:50.217Z,94977.89
2019-03-01T05:56:51.512Z,94976.43
2019-03-01T07:05:16.546Z,94947.10
2019-03-01T07:10:17.879Z,94954.68
2019-03-01T07:15:19.266Z,94933.89
2019-03-01T07:20:20.552Z,94942.73
2019-03-01T07:25:21.906Z,94949.14
2019-03-01T07:30:23.204Z,94945.41
2019-03-01T08:32:27.453Z,94959.09
2019-03-01T08:37:27.664Z,94950.19
2019-03-01T08:42:28.935Z,94960.61
2019-03-01T08:47:30.225Z,94953.15
2019-03-01T08:52:31.509Z,94949.85
2019-03-01T08:57:32.786Z,94943.53
2019-03-01T10:05:55.380Z,94913.91
2019-03-01T10:10:56.674Z,94903.25
2019-03-01T10:15:58.701Z,94906.36
2019-03-01T10:20:59.981Z,94898.19
2019-03-01T10:26:01.282Z,94916.57
2019-03-01T11:34:22.629Z,94959.47
2019-03-01T11:39:23.929Z,94923.06
2019-03-01T11:44:25.298Z,94907.95
2019-03-01T11:49:26.578Z,94915.52
2019-03-01T11:54:27.989Z,94909.44
2019-03-01T11:59:29.293Z,94937.15
2019-03-01T13:01:35.218Z,94922.53
2019-03-01T13:06:39.914Z,94948.72
2019-03-01T13:11:48.619Z,94938.31
2019-03-01T13:16:52.330Z,94922.45
2019-03-01T13:21:53.586Z,94951.51
2019-03-01T13:26:54.871Z,94927.28
2019-03-01T14:35:20.466Z,94936.14
2019-03-01T14:40:22.642Z,94941.77
2019-03-01T14:45:28.462Z,94943.00
2019-03-01T14:50:33.307Z,94960.11
2019-03-01T14:55:48.056Z,94943.86
2019-03-01T16:04:11.935Z,94981.98
2019-03-01T16:09:13.283Z,94991.97
2019-03-01T16:14:14.566Z,95014.63
2019-03-01T16:19:15.888Z,95007.03
2019-03-01T16:24:17.216Z,95010.97
2019-03-01T16:29:19.462Z,95020.84
2019-03-01T16:34:20.848Z,95037.44
2019-03-01T16:39:23.818Z,95023.36
2019-03-01T16:44:24.669Z,95026.98
2019-03-01T16:49:27.224Z,95038.95
2019-03-01T16:54:27.420Z,95041.77
2019-03-01T16:59:35.731Z,95046.59
2019-03-01T17:04:39.405Z,95053.65
2019-03-01T17:09:51.334Z,95064.02
2019-03-01T17:14:50.645Z,95066.42
2019-03-01T17:19:53.735Z,95073.77
2019-03-01T17:25:02.293Z,95093.13
2019-03-01T17:30:03.779Z,95087.70
2019-03-01T17:35:06.384Z,95095.81
2019-03-01T17:40:11.689Z,95097.02
2019-03-01T17:45:20.990Z,95111.41
2019-03-01T17:50:20.066Z,95111.33
2019-03-01T17:55:25.949Z,95114.73
2019-03-01T18:00:29.150Z,95111.45
2019-03-01T18:05:30.514Z,95117.27
2019-03-01T18:10:32.941Z,95117.98
2019-03-01T18:15:33.958Z,95120.84
2019-03-01T18:20:37.657Z,95121.17
2019-03-01T18:25:36.611Z,95125.16
2019-03-01T18:30:38.315Z,95143.38
2019-03-01T18:35:39.678Z,95146.37
2019-03-01T18:40:41.742Z,95148.58
2019-03-01T18:45:43.822Z,95153.70
2019-03-01T18:50:47.302Z,95144.28
2019-03-01T18:55:49.626Z,95156.99
2019-03-01T19:00:51.164Z,95154.22
2019-03-01T19:05:53.494Z,95158.39
2019-03-01T19:10:55.337Z,95159.52
2019-03-01T19:15:59.641Z,95171.91
2019-03-01T19:21:13.957Z,95181.60
2019-03-01T19:26:19.187Z,95189.53
2019-03-01T19:31:30.430Z,95190.95
2019-03-01T19:36:35.591Z,95204.48
2019-03-01T19:41:37.958Z,95212.91
2019-03-01T19:46:47.544Z,95213.72
2019-03-01T19:51:50.467Z,95221.66
2019-03-01T19:56:52.046Z,95224.11
2019-03-01T20:02:03.870Z,95226.99
2019-03-01T20:07:06.768Z,95231.23
2019-03-01T20:12:08.742Z,95232.33
2019-03-01T20:17:12.840Z,95236.55
2019-03-01T20:22:15.506Z,95235.03
2019-03-01T20:27:17.159Z,95239.73
2019-03-01T20:32:19.251Z,95246.94
2019-03-01T20:37:20.734Z,95249.50
2019-03-01T20:42:24.392Z,95246.74
2019-03-01T20:47:23.482Z,95251.13
2019-03-01T20:52:24.898Z,95249.75
2019-03-01T20:57:27.126Z,95259.30
2019-03-01T21:02:29.464Z,95262.52
2019-03-01T21:07:31.620Z,95260.98
2019-03-01T21:12:33.522Z,95267.57
2019-03-01T21:17:34.326Z,95270.11
2019-03-01T21:22:36.671Z,95272.61
2019-03-01T21:27:37.145Z,95278.23
2019-03-01T21:32:40.465Z,95280.61
2019-03-01T21:37:41.930Z,95276.81
2019-03-01T21:42:43.275Z,95287.34
2019-03-01T21:47:47.715Z,95285.42
2019-03-01T21:52:46.030Z,95285.45
2019-03-01T21:57:47.350Z,95284.15
2019-03-01T22:02:52.812Z,95294.86
2019-03-01T22:07:50.815Z,95297.73
2019-03-01T22:12:52.211Z,95292.89
2019-03-01T22:17:53.650Z,95294.77
2019-03-01T22:22:54.980Z,95295.30
2019-03-01T22:27:57.709Z,95293.77
2019-03-01T22:32:58.285Z,95295.72
2019-03-01T22:38:04.758Z,95303.25
2019-03-01T22:43:02.912Z,95299.72
2019-03-01T22:48:04.936Z,95298.73
2019-03-01T22:53:06.666Z,95299.33
2019-03-01T22:58:09.266Z,95312.91
2019-03-01T23:34:51.414Z,95333.29
2019-03-01T23:39:52.973Z,95338.64
2019-03-01T23:44:54.372Z,95319.25
2019-03-01T23:49:58.993Z,95327.65
2019-03-01T23:54:57.006Z,95317.41
2019-03-01T23:59:58.749Z,95319.89
